Time;durP1;ratioP1;P1;durP2;ratioP2;P2;SDS_P1;SDS_P2;PMS_P1;PMS_P2;Temp;Humidity;BMP_temperature;BMP_pressure;BME280_temperature;BME280_humidity;BME280_pressure;Samples;Min_cycle;Max_cycle;Signal;HPM_P1;HPM_P2
2023/07/12 00:00:58;;;;;;;3.25;3.05;;;20.60;99.90;;;;;;4972956;28;20518;-73
2023/07/12 00:03:24;;;;;;;3.80;3.28;;;20.60;99.90;;;;;;4986122;28;20263;-73
2023/07/12 00:05:51;;;;;;;3.17;2.80;;;20.60;99.90;;;;;;4975450;28;20216;-73
2023/07/12 00:08:22;;;;;;;3.00;2.75;;;20.60;99.90;;;;;;4971049;28;20443;-73
2023/07/12 00:10:49;;;;;;;3.05;2.75;;;20.60;99.90;;;;;;4967819;28;20184;-73
2023/07/12 00:13:16;;;;;;;3.50;3.20;;;20.70;99.90;;;;;;4968928;28;20552;-71
2023/07/12 00:15:43;;;;;;;3.35;3.05;;;20.80;99.90;;;;;;4971817;28;20270;-71
2023/07/12 00:18:20;;;;;;;3.65;2.90;;;20.80;99.90;;;;;;4970095;28;20192;-71
2023/07/12 00:20:48;;;;;;;2.70;2.50;;;20.90;99.90;;;;;;4970178;28;20623;-73
2023/07/12 00:23:15;;;;;;;2.65;2.45;;;20.90;99.90;;;;;;4987447;28;20235;-72
2023/07/12 00:25:42;;;;;;;2.75;2.55;;;20.90;99.90;;;;;;4970189;28;20188;-71
2023/07/12 00:28:17;;;;;;;2.28;2.15;;;21.00;99.90;;;;;;4971785;28;20191;-70
2023/07/12 00:30:43;;;;;;;4.65;2.95;;;21.10;99.90;;;;;;4971527;28;20188;-71
2023/07/12 00:33:09;;;;;;;2.63;2.43;;;21.20;99.90;;;;;;4972623;28;20676;-69
2023/07/12 00:35:35;;;;;;;3.88;2.80;;;21.10;99.90;;;;;;4971229;28;20179;-70
2023/07/12 00:38:01;;;;;;;2.47;2.28;;;21.20;99.90;;;;;;4970842;28;20246;-69
2023/07/12 00:40:42;;;;;;;2.47;2.17;;;21.30;99.90;;;;;;4969385;28;20637;-70
2023/07/12 00:43:31;;;;;;;3.37;2.70;;;21.30;99.90;;;;;;4967977;28;20206;-70
2023/07/12 00:45:59;;;;;;;2.63;2.43;;;21.30;99.90;;;;;;4984856;28;20447;-70
2023/07/12 00:48:25;;;;;;;3.90;2.50;;;21.30;99.90;;;;;;4985790;28;20446;-70
2023/07/12 00:50:51;;;;;;;2.80;2.23;;;21.40;99.90;;;;;;4969809;28;20215;-70
2023/07/12 00:53:23;;;;;;;3.77;2.30;;;21.40;99.90;;;;;;4968397;28;20471;-69
2023/07/12 00:56:03;;;;;;;2.70;2.50;;;21.50;99.90;;;;;;4968742;28;20267;-70
2023/07/12 00:58:37;;;;;;;3.23;2.93;;;21.50;99.90;;;;;;4967566;28;20453;-70
2023/07/12 01:01:05;;;;;;;4.55;2.35;;;21.40;99.90;;;;;;4986651;28;20668;-70
2023/07/12 01:03:35;;;;;;;5.75;2.55;;;21.30;99.90;;;;;;4969227;28;20211;-70
2023/07/12 01:06:01;;;;;;;3.27;2.40;;;21.20;99.90;;;;;;4974971;28;20204;-70
2023/07/12 01:08:29;;;;;;;3.83;2.40;;;21.30;99.90;;;;;;4967379;28;20451;-69
2023/07/12 01:10:56;;;;;;;2.73;2.53;;;22.50;99.90;;;;;;4971106;28;20447;-70
2023/07/12 01:13:23;;;;;;;3.83;2.45;;;21.30;99.90;;;;;;4970501;28;21339;-69
2023/07/12 01:15:50;;;;;;;2.63;2.43;;;21.30;99.90;;;;;;4971532;28;20194;-70
2023/07/12 01:18:16;;;;;;;2.60;2.40;;;21.40;99.90;;;;;;4971098;28;20886;-70
2023/07/12 01:20:43;;;;;;;2.47;2.27;;;21.40;99.90;;;;;;4969902;28;20291;-70
2023/07/12 01:23:08;;;;;;;2.77;2.33;;;21.40;99.90;;;;;;4987953;28;20550;-70
2023/07/12 01:25:44;;;;;;;2.83;2.47;;;21.50;99.90;;;;;;4971284;28;20553;-69
2023/07/12 01:28:10;;;;;;;2.15;2.05;;;21.50;99.90;;;;;;4971545;28;20183;-70
2023/07/12 01:30:37;;;;;;;3.37;2.73;;;21.60;99.90;;;;;;4985916;28;20903;-70
2023/07/12 01:33:03;;;;;;;2.40;2.13;;;21.80;99.90;;;;;;4972295;28;20614;-69
2023/07/12 01:35:30;;;;;;;4.50;2.63;;;21.90;99.90;;;;;;4970005;28;20443;-69
2023/07/12 01:37:55;;;;;;;3.00;2.30;;;22.10;99.90;;;;;;4967756;28;21295;-69
2023/07/12 01:40:21;;;;;;;4.53;2.77;;;22.00;99.90;;;;;;4968113;28;20435;-70
2023/07/12 01:42:47;;;;;;;3.07;2.57;;;22.00;99.90;;;;;;4968420;28;20723;-70
2023/07/12 01:45:12;;;;;;;4.57;2.60;;;21.80;99.90;;;;;;4971419;28;20191;-69
2023/07/12 01:47:38;;;;;;;3.83;2.90;;;21.70;99.90;;;;;;4969864;28;20188;-70
2023/07/12 01:50:04;;;;;;;3.30;3.00;;;21.70;99.90;;;;;;4970279;28;20187;-70
2023/07/12 01:52:30;;;;;;;3.73;2.43;;;21.60;99.90;;;;;;4972992;28;20211;-70
2023/07/12 01:54:55;;;;;;;2.37;2.10;;;21.40;99.90;;;;;;4972400;28;20539;-69
2023/07/12 01:57:21;;;;;;;4.97;2.73;;;21.40;99.90;;;;;;4974069;28;20227;-69
2023/07/12 01:59:46;;;;;;;2.57;2.37;;;21.40;99.90;;;;;;4970544;28;20200;-70
2023/07/12 02:02:12;;;;;;;3.03;2.60;;;21.30;99.90;;;;;;4973890;28;20192;-69
2023/07/12 02:04:38;;;;;;;2.73;2.50;;;21.30;99.90;;;;;;4988721;28;20207;-69
2023/07/12 02:07:04;;;;;;;2.53;2.23;;;21.40;99.90;;;;;;4988674;28;20657;-69
2023/07/12 02:09:35;;;;;;;3.37;2.57;;;21.40;99.90;;;;;;4990070;28;20443;-68
2023/07/12 02:12:02;;;;;;;2.83;2.50;;;21.50;99.90;;;;;;4973276;28;20541;-68
2023/07/12 02:14:27;;;;;;;5.70;2.53;;;21.60;99.90;;;;;;4964798;28;20204;-69
2023/07/12 02:16:53;;;;;;;3.47;2.83;;;21.60;99.90;;;;;;4972375;28;20510;-69
2023/07/12 02:19:20;;;;;;;3.53;2.60;;;21.60;99.90;;;;;;4969978;28;20202;-69
2023/07/12 02:21:45;;;;;;;5.32;3.10;;;21.50;99.90;;;;;;4975541;28;20187;-69
2023/07/12 02:24:11;;;;;;;3.33;3.03;;;21.40;99.90;;;;;;4969087;28;20212;-69
2023/07/12 02:26:37;;;;;;;3.30;3.00;;;21.40;99.90;;;;;;4974932;28;20192;-69
2023/07/12 02:29:02;;;;;;;4.27;3.07;;;21.40;99.90;;;;;;4969390;28;20536;-69
2023/07/12 02:31:30;;;;;;;3.00;2.80;;;21.40;99.90;;;;;;4970871;28;20242;-69
2023/07/12 02:33:56;;;;;;;3.20;2.90;;;21.40;99.90;;;;;;4972467;28;20299;-69
2023/07/12 02:36:22;;;;;;;3.03;2.80;;;21.30;99.90;;;;;;4985105;28;20176;-69
2023/07/12 02:38:48;;;;;;;4.17;3.00;;;21.30;99.90;;;;;;4972186;28;20188;-69
2023/07/12 02:41:15;;;;;;;4.10;3.10;;;21.30;99.90;;;;;;4985108;28;20446;-69
2023/07/12 02:43:40;;;;;;;3.30;3.00;;;21.40;99.90;;;;;;4969502;28;20204;-69
2023/07/12 02:46:06;;;;;;;4.53;3.27;;;21.30;99.90;;;;;;4973292;28;20195;-68
2023/07/12 02:48:31;;;;;;;3.87;3.00;;;21.20;99.90;;;;;;4971589;28;20215;-68
2023/07/12 02:50:57;;;;;;;3.53;2.97;;;21.20;99.90;;;;;;4985577;28;20275;-68
2023/07/12 02:53:23;;;;;;;5.80;3.30;;;21.20;99.90;;;;;;4972182;28;20732;-70
2023/07/12 02:55:50;;;;;;;3.33;3.03;;;21.10;99.90;;;;;;4973095;28;20192;-69
2023/07/12 02:58:15;;;;;;;3.40;3.10;;;21.10;99.90;;;;;;4969713;28;20271;-70
2023/07/12 03:00:41;;;;;;;3.00;2.80;;;21.10;99.90;;;;;;4970522;28;20267;-70
2023/07/12 03:03:09;;;;;;;3.80;2.73;;;21.00;99.90;;;;;;4971616;28;20216;-69
2023/07/12 03:05:38;;;;;;;3.60;3.30;;;21.00;99.90;;;;;;4972282;28;20661;-69
2023/07/12 03:08:04;;;;;;;3.85;3.38;;;21.00;99.90;;;;;;4970288;28;20199;-69
2023/07/12 03:10:30;;;;;;;3.00;2.80;;;20.80;99.90;;;;;;4971559;28;20188;-69
2023/07/12 03:12:56;;;;;;;4.47;3.40;;;21.00;99.90;;;;;;4971173;28;20475;-70
2023/07/12 03:15:22;;;;;;;3.60;3.30;;;21.00;99.90;;;;;;4973180;28;20255;-70
2023/07/12 03:17:47;;;;;;;5.20;3.27;;;21.00;99.90;;;;;;4970760;28;20188;-70
2023/07/12 03:20:13;;;;;;;3.40;3.20;;;21.00;99.90;;;;;;4973082;28;20576;-70
2023/07/12 03:22:38;;;;;;;4.40;3.30;;;20.90;99.90;;;;;;4971350;28;20196;-70
2023/07/12 03:25:04;;;;;;;3.17;2.87;;;20.90;99.90;;;;;;4974182;28;20196;-70
2023/07/12 03:27:30;;;;;;;6.67;3.60;;;20.90;99.90;;;;;;4986172;28;20246;-70
2023/07/12 03:29:56;;;;;;;6.43;3.30;;;20.90;99.90;;;;;;4970037;28;20459;-70
2023/07/12 03:32:22;;;;;;;5.93;2.93;;;20.90;99.90;;;;;;4970374;28;20359;-70
2023/07/12 03:34:48;;;;;;;4.75;3.03;;;21.00;99.90;;;;;;4972502;28;20231;-70
2023/07/12 03:37:14;;;;;;;7.50;3.77;;;21.00;99.90;;;;;;4972408;28;20207;-70
2023/07/12 03:39:39;;;;;;;7.50;3.70;;;21.00;99.90;;;;;;4972109;28;20187;-70
2023/07/12 03:42:05;;;;;;;6.07;3.43;;;21.00;99.90;;;;;;4974265;28;20804;-70
2023/07/12 03:44:31;;;;;;;6.17;3.53;;;21.00;99.90;;;;;;4985061;28;20206;-71
2023/07/12 03:46:56;;;;;;;4.00;3.60;;;21.00;99.90;;;;;;4972825;28;20356;-69
2023/07/12 03:49:22;;;;;;;3.93;3.40;;;21.00;99.90;;;;;;4967451;28;20176;-78
2023/07/12 03:51:47;;;;;;;6.67;3.40;;;21.00;99.90;;;;;;4971434;28;20705;-78
2023/07/12 03:54:14;;;;;;;3.77;3.47;;;21.00;99.90;;;;;;4971676;28;20211;-77
2023/07/12 03:56:39;;;;;;;5.25;3.90;;;21.00;99.90;;;;;;4970119;28;20180;-79
2023/07/12 03:59:06;;;;;;;7.50;3.37;;;21.00;99.90;;;;;;4970045;28;20762;-77
2023/07/12 04:01:32;;;;;;;3.70;3.13;;;21.00;99.90;;;;;;4983813;28;20184;-79
2023/07/12 04:03:58;;;;;;;5.70;3.60;;;21.10;99.90;;;;;;4986601;28;20211;-76
2023/07/12 04:06:23;;;;;;;3.90;3.50;;;21.10;99.90;;;;;;4970615;28;20188;-76
2023/07/12 04:08:49;;;;;;;4.27;3.80;;;21.10;99.90;;;;;;4984186;28;20558;-77
2023/07/12 04:11:24;;;;;;;4.43;2.73;;;21.10;99.90;;;;;;4971347;28;20322;-79
2023/07/12 04:13:50;;;;;;;6.18;3.60;;;21.10;99.90;;;;;;4986205;28;20214;-75
2023/07/12 04:16:16;;;;;;;7.87;4.10;;;21.10;99.90;;;;;;4968749;28;20188;-81
2023/07/12 04:18:42;;;;;;;7.83;3.67;;;21.10;99.90;;;;;;4970228;28;20204;-76
2023/07/12 04:21:07;;;;;;;7.13;3.80;;;21.10;99.90;;;;;;4985380;28;20653;-79
2023/07/12 04:23:33;;;;;;;5.30;3.60;;;21.20;99.90;;;;;;4970189;28;20697;-78
2023/07/12 04:26:01;;;;;;;5.77;3.60;;;21.20;99.90;;;;;;4970015;28;20685;-76
2023/07/12 04:28:27;;;;;;;5.40;3.83;;;21.20;99.90;;;;;;4968462;28;20275;-76
2023/07/12 04:30:53;;;;;;;4.32;3.92;;;21.30;99.90;;;;;;4968026;28;20192;-76
2023/07/12 04:33:19;;;;;;;6.20;3.70;;;21.40;99.90;;;;;;4983322;28;20334;-76
2023/07/12 04:35:44;;;;;;;5.77;3.60;;;21.40;99.90;;;;;;4967283;28;20968;-77
2023/07/12 04:38:10;;;;;;;6.23;3.53;;;21.50;99.90;;;;;;4969158;28;20184;-76
2023/07/12 04:40:36;;;;;;;5.10;3.57;;;21.50;99.90;;;;;;4983570;28;20200;-77
2023/07/12 04:43:01;;;;;;;4.07;3.63;;;21.60;99.90;;;;;;4982378;28;20283;-76
2023/07/12 04:45:27;;;;;;;4.97;3.40;;;21.80;99.90;;;;;;4965858;28;20634;-81
2023/07/12 04:47:52;;;;;;;6.73;3.60;;;21.90;99.90;;;;;;4977736;28;20682;-80
2023/07/12 04:50:18;;;;;;;5.23;3.70;;;22.00;99.90;;;;;;4967510;28;20192;-82
2023/07/12 04:52:43;;;;;;;4.20;3.80;;;22.00;99.90;;;;;;4962272;28;20319;-78
2023/07/12 04:55:25;;;;;;;6.00;3.80;;;22.10;99.90;;;;;;4984716;28;20185;-78
2023/07/12 04:57:51;;;;;;;5.10;3.50;;;22.20;99.90;;;;;;4966981;28;20210;-81
2023/07/12 05:00:17;;;;;;;6.10;4.10;;;22.50;99.90;;;;;;4972599;28;20915;-81
2023/07/12 05:02:43;;;;;;;5.60;4.20;;;22.20;99.90;;;;;;4971814;28;20567;-81
2023/07/12 05:05:11;;;;;;;5.13;4.13;;;22.20;99.90;;;;;;4986118;28;20195;-81
2023/07/12 05:07:37;;;;;;;4.40;3.73;;;22.20;99.90;;;;;;4972590;28;20454;-81
2023/07/12 05:10:03;;;;;;;4.40;3.80;;;22.20;99.90;;;;;;4964008;28;20485;-79
2023/07/12 05:12:29;;;;;;;5.70;4.07;;;22.20;99.90;;;;;;4973444;28;20494;-84
2023/07/12 05:14:55;;;;;;;9.70;4.43;;;22.20;99.90;;;;;;4969211;28;20452;-81
2023/07/12 05:17:21;;;;;;;6.17;3.90;;;22.20;99.90;;;;;;4984895;28;20447;-78
2023/07/12 05:19:46;;;;;;;6.60;3.70;;;22.30;99.90;;;;;;4959081;28;20199;-75
2023/07/12 05:22:12;;;;;;;6.13;4.20;;;22.40;99.90;;;;;;4961530;28;20638;-76
2023/07/12 05:24:37;;;;;;;4.30;4.00;;;22.50;99.90;;;;;;4984574;28;20208;-79
2023/07/12 05:27:04;;;;;;;5.80;4.60;;;22.60;99.90;;;;;;4967820;28;20184;-78
2023/07/12 05:29:29;;;;;;;6.57;4.20;;;22.50;99.90;;;;;;4971219;28;20183;-78
2023/07/12 05:31:55;;;;;;;5.50;4.93;;;22.60;99.90;;;;;;4971060;28;20493;-79
2023/07/12 05:34:21;;;;;;;6.13;4.23;;;22.90;99.90;;;;;;4990962;28;20333;-81
2023/07/12 05:36:47;;;;;;;5.27;4.50;;;22.70;99.90;;;;;;4987937;28;20475;-81
2023/07/12 05:39:12;;;;;;;4.43;4.00;;;22.80;99.90;;;;;;4988492;28;20219;-79
2023/07/12 05:41:38;;;;;;;5.60;4.90;;;22.80;99.90;;;;;;4966040;28;20235;-79
2023/07/12 05:44:04;;;;;;;6.07;4.37;;;22.80;99.90;;;;;;4975395;28;20196;-81
2023/07/12 05:46:29;;;;;;;7.00;4.53;;;22.90;99.90;;;;;;4963006;28;20279;-72
2023/07/12 05:48:55;;;;;;;5.17;4.77;;;23.00;99.90;;;;;;4969370;28;20212;-74
2023/07/12 05:51:21;;;;;;;5.90;4.40;;;23.10;99.90;;;;;;4965969;28;20188;-73
2023/07/12 05:53:47;;;;;;;4.70;4.07;;;23.20;99.90;;;;;;4965543;28;20708;-74
2023/07/12 05:56:12;;;;;;;6.90;4.83;;;23.30;99.90;;;;;;4968381;28;20493;-73
2023/07/12 05:58:38;;;;;;;7.80;4.63;;;23.40;99.90;;;;;;4982656;28;20260;-75
2023/07/12 06:01:05;;;;;;;5.33;4.83;;;23.50;99.90;;;;;;4968224;28;20913;-74
2023/07/12 06:03:32;;;;;;;9.03;5.00;;;23.60;99.90;;;;;;4968378;28;20580;-75
2023/07/12 06:05:58;;;;;;;5.90;5.03;;;23.60;99.90;;;;;;4982837;28;21749;-74
2023/07/12 06:08:25;;;;;;;5.77;4.50;;;24.20;99.90;;;;;;4983936;28;20450;-75
2023/07/12 06:10:50;;;;;;;4.70;4.20;;;23.80;99.90;;;;;;4981807;28;20585;-72
2023/07/12 06:13:16;;;;;;;5.30;4.57;;;23.90;99.90;;;;;;4967783;28;20491;-74
2023/07/12 06:15:42;;;;;;;9.53;5.57;;;24.00;99.90;;;;;;4982474;28;20188;-75
2023/07/12 06:18:08;;;;;;;6.03;4.77;;;24.10;99.90;;;;;;4970497;28;20288;-75
2023/07/12 06:20:34;;;;;;;6.07;4.90;;;24.10;99.90;;;;;;4967861;28;20538;-75
2023/07/12 06:22:59;;;;;;;5.47;4.60;;;24.10;99.90;;;;;;4968792;28;20465;-72
2023/07/12 06:25:25;;;;;;;5.67;5.10;;;24.10;99.90;;;;;;4982807;28;20263;-74
2023/07/12 06:27:51;;;;;;;7.00;5.27;;;24.20;99.90;;;;;;4966890;28;20200;-74
2023/07/12 06:30:17;;;;;;;7.70;5.20;;;24.30;99.90;;;;;;4984786;28;20436;-74
2023/07/12 06:32:43;;;;;;;7.33;4.87;;;24.40;99.90;;;;;;4966460;28;20208;-73
2023/07/12 06:35:09;;;;;;;5.10;4.60;;;24.40;99.90;;;;;;4969053;28;20438;-75
2023/07/12 06:37:34;;;;;;;5.87;5.13;;;24.50;99.90;;;;;;4969342;28;20193;-72
2023/07/12 06:40:00;;;;;;;5.83;4.67;;;24.70;99.90;;;;;;4970696;28;20185;-73
2023/07/12 06:42:26;;;;;;;8.33;5.00;;;25.00;99.90;;;;;;4986367;28;20558;-75
2023/07/12 06:44:52;;;;;;;4.90;4.50;;;25.20;99.90;;;;;;4970686;28;20633;-74
2023/07/12 06:47:17;;;;;;;6.03;5.00;;;25.40;99.90;;;;;;4971769;28;20446;-74
2023/07/12 06:49:43;;;;;;;5.07;4.53;;;25.80;99.90;;;;;;4967669;28;20187;-74
2023/07/12 06:52:10;;;;;;;5.00;4.60;;;25.80;99.90;;;;;;4986204;28;20233;-74
2023/07/12 06:54:36;;;;;;;5.23;4.73;;;26.00;99.90;;;;;;4973070;28;20215;-74
2023/07/12 06:57:02;;;;;;;8.57;5.00;;;26.10;99.90;;;;;;4986340;28;20447;-74
2023/07/12 06:59:27;;;;;;;5.77;5.03;;;26.20;99.90;;;;;;4986298;28;20472;-74
2023/07/12 07:01:53;;;;;;;8.80;4.80;;;26.50;99.90;;;;;;4972564;28;20747;-74
2023/07/12 07:04:19;;;;;;;7.10;4.97;;;26.70;99.90;;;;;;4971854;28;20290;-75
2023/07/12 07:06:44;;;;;;;5.20;4.70;;;26.90;99.90;;;;;;4968017;28;20239;-74
2023/07/12 07:09:10;;;;;;;5.83;4.40;;;27.20;99.90;;;;;;4971649;28;20239;-69
2023/07/12 07:11:36;;;;;;;5.40;4.90;;;27.50;99.90;;;;;;4969626;28;20231;-69
2023/07/12 07:14:02;;;;;;;4.90;4.47;;;27.80;99.10;;;;;;4967793;28;20491;-76
2023/07/12 07:16:27;;;;;;;5.23;4.80;;;27.90;97.50;;;;;;4982584;28;20848;-80
2023/07/12 07:18:53;;;;;;;5.10;4.40;;;27.70;96.60;;;;;;4986154;28;20678;-77
2023/07/12 07:21:19;;;;;;;5.00;4.50;;;27.90;97.30;;;;;;4971272;28;20237;-77
2023/07/12 07:23:48;;;;;;;5.30;4.80;;;28.60;95.40;;;;;;4987149;28;20255;-79
2023/07/12 07:26:14;;;;;;;4.83;4.20;;;29.40;94.20;;;;;;4984245;28;20188;-73
2023/07/12 07:28:41;;;;;;;6.33;4.40;;;29.60;93.00;;;;;;4970953;28;20448;-73
2023/07/12 07:31:07;;;;;;;4.57;4.17;;;30.70;91.10;;;;;;4967132;28;20507;-73
2023/07/12 07:33:33;;;;;;;4.47;4.10;;;31.40;88.70;;;;;;4987442;28;20531;-74
2023/07/12 07:35:59;;;;;;;7.30;4.03;;;31.90;86.00;;;;;;4968476;28;20447;-75
2023/07/12 07:38:27;;;;;;;6.33;4.03;;;32.20;84.10;;;;;;4970666;28;20461;-75
2023/07/12 07:40:54;;;;;;;4.80;3.97;;;32.60;81.90;;;;;;4983209;28;20216;-74
2023/07/12 07:43:20;;;;;;;4.20;3.80;;;32.60;81.50;;;;;;4964108;28;20467;-75
2023/07/12 07:45:46;;;;;;;6.90;4.37;;;32.40;79.60;;;;;;4970008;28;20445;-73
2023/07/12 07:48:12;;;;;;;4.20;3.80;;;33.40;78.00;;;;;;4974486;28;20443;-71
2023/07/12 07:50:39;;;;;;;4.47;4.07;;;34.30;73.80;;;;;;4987460;28;20198;-67
2023/07/12 07:53:05;;;;;;;5.00;4.30;;;35.20;70.10;;;;;;4971221;28;21523;-74
2023/07/12 07:55:31;;;;;;;4.23;3.80;;;35.00;68.90;;;;;;4974242;28;20471;-74
2023/07/12 07:57:57;;;;;;;4.13;3.70;;;36.10;65.60;;;;;;4971155;28;20191;-74
2023/07/12 08:00:23;;;;;;;4.60;3.70;;;36.80;61.30;;;;;;4965945;28;20496;-76
2023/07/12 08:02:49;;;;;;;5.70;4.07;;;37.20;59.60;;;;;;4986814;28;20254;-80
2023/07/12 08:05:14;;;;;;;4.40;4.03;;;37.60;58.00;;;;;;4985578;28;20184;-78
2023/07/12 08:07:42;;;;;;;3.90;3.60;;;37.90;57.40;;;;;;4970169;28;20181;-77
2023/07/12 08:10:11;;;;;;;4.30;4.00;;;38.00;56.70;;;;;;4985393;28;20189;-74
2023/07/12 08:12:37;;;;;;;5.73;4.10;;;39.10;55.20;;;;;;4980208;28;20471;-74
2023/07/12 08:15:03;;;;;;;4.80;4.30;;;39.00;53.50;;;;;;4969837;28;20439;-74
2023/07/12 08:17:29;;;;;;;6.37;4.27;;;38.60;54.10;;;;;;4969807;28;20474;-74
2023/07/12 08:19:55;;;;;;;4.27;3.97;;;38.80;53.50;;;;;;4970706;28;20537;-78
2023/07/12 08:22:21;;;;;;;4.97;4.67;;;37.90;54.50;;;;;;4974811;28;20593;-76
2023/07/12 08:24:46;;;;;;;5.50;4.50;;;37.90;54.30;;;;;;4969481;28;20211;-78
2023/07/12 08:27:13;;;;;;;6.50;4.70;;;39.10;53.40;;;;;;4973420;28;20187;-76
2023/07/12 08:29:39;;;;;;;4.27;3.87;;;39.70;50.70;;;;;;4971335;28;20187;-73
2023/07/12 08:32:05;;;;;;;4.60;4.20;;;40.40;49.70;;;;;;4983815;28;20530;-74
2023/07/12 08:34:31;;;;;;;4.60;4.20;;;40.50;47.80;;;;;;4971560;28;20468;-75
2023/07/12 08:36:57;;;;;;;4.30;4.00;;;40.20;47.40;;;;;;4969338;28;20443;-77
2023/07/12 08:39:23;;;;;;;4.17;3.77;;;39.10;47.80;;;;;;4986996;28;20642;-72
2023/07/12 08:41:49;;;;;;;3.90;3.60;;;38.90;48.20;;;;;;4972064;28;20224;-70
2023/07/12 08:44:15;;;;;;;4.63;4.23;;;39.20;48.40;;;;;;4980502;28;20463;-75
2023/07/12 08:46:53;;;;;;;5.00;3.83;;;39.40;47.20;;;;;;4972172;28;20466;-76
2023/07/12 08:49:19;;;;;;;4.13;3.83;;;39.50;47.10;;;;;;4969412;28;20274;-79
2023/07/12 08:57:43;;;;;;;5.00;4.60;;;40.20;44.40;;;;;;5029873;23;20508;-88
2023/07/12 09:00:22;;;;;;;7.40;6.63;;;41.20;44.00;;;;;;5012608;28;20442;-89
2023/07/12 09:02:48;;;;;;;4.33;3.83;;;42.60;42.00;;;;;;5012671;28;20473;-88
2023/07/12 09:05:22;;;;;;;3.93;3.63;;;42.30;41.20;;;;;;5007464;28;20512;-89
2023/07/12 09:08:04;;;;;;;7.13;5.07;;;42.00;40.90;;;;;;4995802;28;20236;-88
2023/07/12 09:11:00;;;;;;;4.50;4.10;;;42.30;40.70;;;;;;4989958;28;20447;-89
2023/07/12 09:13:37;;;;;;;4.00;3.70;;;43.10;39.80;;;;;;5006627;28;21000;-90
2023/07/12 09:16:17;;;;;;;3.63;3.00;;;42.10;40.10;;;;;;4995048;28;20533;-89
2023/07/12 09:18:45;;;;;;;3.30;3.00;;;42.10;39.80;;;;;;4989670;28;20446;-89
2023/07/12 09:21:15;;;;;;;3.70;3.40;;;42.10;39.30;;;;;;4986837;28;20445;-89
2023/07/12 09:23:43;;;;;;;3.93;3.57;;;41.40;39.10;;;;;;5010257;28;20868;-88
2023/07/12 09:26:19;;;;;;;5.47;3.67;;;40.80;40.90;;;;;;4993004;28;20462;-88
2023/07/12 09:28:45;;;;;;;5.93;3.47;;;40.30;41.20;;;;;;5002357;28;20496;-88
2023/07/12 09:31:22;;;;;;;3.33;3.03;;;40.90;40.60;;;;;;4995682;28;20481;-89
2023/07/12 09:33:57;;;;;;;3.57;3.00;;;40.70;41.00;;;;;;4993842;28;20265;-90
2023/07/12 09:36:23;;;;;;;5.27;3.57;;;41.70;39.30;;;;;;5009996;28;20458;-90
2023/07/12 09:38:49;;;;;;;3.77;3.07;;;41.80;39.50;;;;;;4990133;28;20449;-88
2023/07/12 09:41:18;;;;;;;4.13;3.83;;;42.80;38.00;;;;;;4988347;28;20187;-89
2023/07/12 09:43:52;;;;;;;5.17;4.77;;;43.30;37.50;;;;;;4989719;28;20180;-89
2023/07/12 09:46:27;;;;;;;3.87;3.57;;;43.00;37.20;;;;;;5002964;28;20466;-89
2023/07/12 09:49:16;;;;;;;3.63;3.03;;;42.00;38.30;;;;;;4986189;28;20946;-90
2023/07/12 09:51:53;;;;;;;4.73;3.93;;;42.40;36.40;;;;;;4987758;28;20442;-89
2023/07/12 09:54:35;;;;;;;3.70;3.40;;;42.40;37.90;;;;;;4990396;28;20529;-90
2023/07/12 09:57:29;;;;;;;3.60;3.40;;;42.00;36.90;;;;;;4991198;28;20516;-89
2023/07/12 10:00:00;;;;;;;6.30;4.20;;;41.10;36.90;;;;;;4990456;28;20438;-89
2023/07/12 10:02:46;;;;;;;3.43;3.20;;;41.00;38.00;;;;;;4989546;28;20438;-90
2023/07/12 10:05:18;;;;;;;3.17;2.97;;;41.90;37.20;;;;;;4986750;28;20446;-90
2023/07/12 10:07:55;;;;;;;3.53;3.30;;;41.80;36.70;;;;;;4988614;28;20478;-90
2023/07/12 10:10:51;;;;;;;4.10;3.70;;;40.70;37.60;;;;;;4990950;28;20450;-90
2023/07/12 10:13:22;;;;;;;4.17;3.77;;;39.10;40.10;;;;;;4987595;28;20529;-89
2023/07/12 10:15:49;;;;;;;4.10;3.80;;;39.10;40.60;;;;;;4992814;28;21014;-89
2023/07/12 10:18:24;;;;;;;3.70;3.37;;;39.60;39.70;;;;;;4990986;28;21006;-89
2023/07/12 10:20:52;;;;;;;5.50;5.10;;;39.90;39.50;;;;;;5006372;28;20442;-90
2023/07/12 10:23:23;;;;;;;6.63;5.70;;;38.90;41.30;;;;;;4991556;28;20474;-90
2023/07/12 10:25:57;;;;;;;4.23;3.93;;;38.80;41.60;;;;;;4995166;28;20548;-89
2023/07/12 10:28:31;;;;;;;7.30;5.03;;;37.10;42.10;;;;;;5006923;28;20446;-89
2023/07/12 10:31:02;;;;;;;4.30;4.00;;;36.00;44.00;;;;;;5008897;28;21057;-89
2023/07/12 10:33:35;;;;;;;3.80;3.50;;;35.60;45.60;;;;;;4993747;28;20475;-89
2023/07/12 10:36:06;;;;;;;4.50;3.53;;;34.70;46.60;;;;;;4993836;28;20906;-89
2023/07/12 10:38:32;;;;;;;7.00;3.60;;;34.00;48.80;;;;;;4992064;28;20507;-89
2023/07/12 10:41:18;;;;;;;3.73;3.40;;;33.90;49.90;;;;;;4994046;28;20450;-89
2023/07/12 10:43:49;;;;;;;3.80;3.50;;;33.40;49.30;;;;;;4993757;28;20233;-89
2023/07/12 10:46:29;;;;;;;5.43;4.93;;;33.10;50.30;;;;;;4992579;28;20470;-89
2023/07/12 10:48:55;;;;;;;5.53;4.37;;;33.10;51.40;;;;;;4991074;28;20447;-89
2023/07/12 10:51:27;;;;;;;6.90;4.00;;;33.60;50.80;;;;;;5006670;28;20454;-89
2023/07/12 10:53:54;;;;;;;4.93;4.13;;;33.90;49.90;;;;;;4990042;28;20473;-89
2023/07/12 10:56:27;;;;;;;5.63;4.17;;;35.00;49.50;;;;;;4991539;28;20474;-89
2023/07/12 10:59:25;;;;;;;4.60;4.20;;;34.20;48.50;;;;;;4988874;28;20514;-89
2023/07/12 11:01:56;;;;;;;4.30;3.53;;;33.90;48.30;;;;;;5006058;28;20530;-88
2023/07/12 11:04:31;;;;;;;4.87;4.37;;;34.30;48.00;;;;;;4989290;28;20447;-88
2023/07/12 11:07:12;;;;;;;4.47;4.07;;;34.70;47.50;;;;;;4994435;28;20457;-88
2023/07/12 11:09:47;;;;;;;5.10;4.67;;;35.30;46.10;;;;;;4993234;28;20446;-88
2023/07/12 11:12:13;;;;;;;5.50;4.20;;;36.10;44.70;;;;;;4991958;28;20850;-89
2023/07/12 11:14:39;;;;;;;4.03;3.73;;;36.70;44.30;;;;;;4993037;28;20530;-89
2023/07/12 11:17:09;;;;;;;5.60;4.20;;;37.30;43.70;;;;;;4992297;28;20592;-90
2023/07/12 11:19:40;;;;;;;4.60;4.20;;;38.50;42.20;;;;;;4987083;28;20187;-90
2023/07/12 11:22:18;;;;;;;4.57;4.00;;;40.30;41.50;;;;;;4991331;28;20465;-89
2023/07/12 11:25:06;;;;;;;4.60;4.20;;;39.20;39.10;;;;;;4986151;28;20446;-89
2023/07/12 11:27:42;;;;;;;5.97;5.47;;;38.50;40.80;;;;;;5007526;28;20481;-90
2023/07/12 11:30:23;;;;;;;4.23;3.83;;;38.40;43.30;;;;;;4991228;28;20516;-89
2023/07/12 11:32:53;;;;;;;4.83;4.37;;;37.60;41.80;;;;;;4991734;28;21008;-90
2023/07/12 11:35:29;;;;;;;4.60;4.17;;;38.00;41.20;;;;;;4988486;28;20812;-90
2023/07/12 11:37:56;;;;;;;6.10;4.47;;;38.80;40.60;;;;;;4993050;28;20470;-90
2023/07/12 11:40:35;;;;;;;5.77;5.37;;;39.50;40.20;;;;;;4991101;28;20477;-89
2023/07/12 11:43:23;;;;;;;4.00;3.53;;;38.70;40.60;;;;;;4989815;28;20439;-89
2023/07/12 11:45:54;;;;;;;4.93;4.37;;;38.70;39.60;;;;;;4990268;28;20466;-89
2023/07/12 11:48:21;;;;;;;4.77;4.37;;;38.50;39.80;;;;;;5008550;28;20453;-89
2023/07/12 11:50:49;;;;;;;4.73;4.33;;;38.50;39.90;;;;;;4992989;28;20862;-89
2023/07/12 11:53:15;;;;;;;5.13;4.33;;;38.70;40.90;;;;;;4993845;28;21056;-89
2023/07/12 11:55:41;;;;;;;5.27;4.77;;;36.40;41.80;;;;;;4995273;28;20474;-90
2023/07/12 11:58:20;;;;;;;5.40;4.60;;;35.60;43.30;;;;;;4993132;28;20434;-89
2023/07/12 12:00:46;;;;;;;5.10;4.07;;;34.90;45.60;;;;;;4992668;28;20188;-87
2023/07/12 12:03:13;;;;;;;4.83;4.40;;;34.30;46.20;;;;;;4994751;28;20442;-89
2023/07/12 12:05:40;;;;;;;5.30;4.80;;;34.10;47.30;;;;;;4995364;28;20461;-87
2023/07/12 12:08:07;;;;;;;6.73;4.50;;;33.20;47.70;;;;;;4989036;28;20450;-89
2023/07/12 12:10:40;;;;;;;4.57;4.17;;;33.60;49.30;;;;;;4998360;28;20454;-87
2023/07/12 12:13:17;;;;;;;5.60;4.43;;;32.40;49.50;;;;;;4976205;28;20488;-87
2023/07/12 12:15:49;;;;;;;5.43;4.70;;;32.30;50.20;;;;;;4994542;28;20524;-87
2023/07/12 12:18:17;;;;;;;4.73;4.33;;;32.60;51.20;;;;;;4993704;28;20440;-88
2023/07/12 12:21:01;;;;;;;4.37;4.07;;;32.10;50.90;;;;;;5000179;28;20489;-88
2023/07/12 12:23:41;;;;;;;4.63;4.10;;;32.00;51.30;;;;;;5005496;28;20438;-87
2023/07/12 12:26:31;;;;;;;10.10;4.60;;;31.90;51.00;;;;;;4997225;28;20524;-87
2023/07/12 12:28:58;;;;;;;4.60;4.20;;;31.80;50.50;;;;;;4999058;28;20472;-88
2023/07/12 12:31:27;;;;;;;5.00;4.60;;;32.40;51.20;;;;;;4994316;28;20454;-87
2023/07/12 12:34:09;;;;;;;8.53;4.10;;;32.40;51.20;;;;;;4992090;28;20879;-87
2023/07/12 12:36:35;;;;;;;5.13;4.30;;;31.80;49.90;;;;;;4991940;28;21025;-88
2023/07/12 12:39:05;;;;;;;5.67;4.57;;;31.70;49.90;;;;;;4993386;28;20450;-87
2023/07/12 12:41:40;;;;;;;5.43;4.93;;;32.50;50.00;;;;;;5011020;28;20186;-88
2023/07/12 12:44:07;;;;;;;4.20;3.90;;;32.20;50.80;;;;;;4994107;28;20523;-88
2023/07/12 12:46:33;;;;;;;4.83;4.33;;;31.40;50.40;;;;;;5019700;28;20546;-87
2023/07/12 12:48:59;;;;;;;6.90;5.53;;;31.40;50.90;;;;;;5007325;28;20448;-88
2023/07/12 12:51:25;;;;;;;5.17;4.57;;;31.60;51.50;;;;;;5005802;28;20206;-88
2023/07/12 12:53:50;;;;;;;5.23;4.30;;;31.40;50.50;;;;;;5009827;28;20493;-87
2023/07/12 12:56:16;;;;;;;4.73;4.33;;;31.40;49.70;;;;;;5006700;28;20528;-87
2023/07/12 12:58:43;;;;;;;4.37;3.97;;;31.60;50.50;;;;;;5009259;28;20239;-87
2023/07/12 13:01:10;;;;;;;6.00;4.03;;;31.20;50.80;;;;;;5009040;28;20180;-88